createdAt,value
2019-06-07T00:02:32.615Z,12.95
2019-06-07T00:05:09.802Z,14.03
2019-06-07T00:07:43.540Z,12.98
2019-06-07T00:10:34.979Z,9.78
2019-06-07T00:12:53.476Z,9.50
2019-06-07T00:15:29.055Z,9.98
2019-06-07T00:18:03.890Z,13.55
2019-06-07T00:20:38.273Z,12.63
2019-06-07T00:23:15.878Z,9.83
2019-06-07T00:25:48.514Z,10.78
2019-06-07T00:28:22.528Z,10.95
2019-06-07T00:30:56.709Z,10.72
2019-06-07T00:33:30.778Z,11.18
2019-06-07T00:36:05.118Z,10.60
2019-06-07T00:38:39.206Z,11.78
2019-06-07T00:41:15.012Z,12.70
2019-06-07T00:43:49.430Z,10.90
2019-06-07T00:46:25.425Z,13.00
2019-06-07T00:48:59.728Z,14.10
2019-06-07T00:51:49.487Z,10.13
2019-06-07T00:54:12.309Z,11.95
2019-06-07T00:56:46.578Z,15.30
2019-06-07T00:59:28.318Z,14.53
2019-06-07T01:01:57.050Z,12.95
2019-06-07T01:04:31.539Z,16.55
2019-06-07T01:07:05.766Z,13.95
2019-06-07T01:09:40.078Z,12.35
2019-06-07T01:12:14.796Z,16.55
2019-06-07T01:14:49.899Z,18.00
2019-06-07T01:17:43.761Z,16.77
2019-06-07T01:20:06.540Z,18.25
2019-06-07T01:22:40.685Z,15.63
2019-06-07T01:25:15.757Z,17.23
2019-06-07T01:27:50.329Z,17.70
2019-06-07T01:30:26.660Z,19.12
2019-06-07T01:33:01.376Z,14.28
2019-06-07T01:35:35.369Z,14.98
2019-06-07T01:38:09.719Z,15.75
2019-06-07T01:40:43.844Z,17.77
2019-06-07T01:43:19.560Z,16.75
2019-06-07T01:45:54.153Z,17.15
2019-06-07T01:48:47.996Z,17.15
2019-06-07T01:51:05.240Z,21.02
2019-06-07T01:53:39.631Z,18.60
2019-06-07T01:56:13.881Z,19.20
2019-06-07T01:58:48.202Z,18.45
2019-06-07T02:01:23.937Z,22.20
2019-06-07T02:03:58.379Z,19.70
2019-06-07T02:06:32.644Z,21.17
2019-06-07T02:09:08.164Z,17.77
2019-06-07T02:11:42.415Z,17.75
2019-06-07T02:14:16.788Z,19.00
2019-06-07T02:16:50.769Z,19.37
2019-06-07T02:19:27.461Z,19.85
2019-06-07T02:22:01.131Z,20.85
2019-06-07T02:24:36.458Z,17.07
2019-06-07T02:27:10.762Z,29.25
2019-06-07T02:29:45.413Z,34.83
2019-06-07T02:32:19.374Z,39.65
2019-06-07T02:34:53.786Z,32.38
2019-06-07T02:37:32.415Z,30.32
2019-06-07T02:40:04.309Z,34.65
2019-06-07T02:42:42.738Z,22.93
2019-06-07T02:45:14.832Z,24.37
2019-06-07T02:47:49.467Z,23.75
2019-06-07T02:50:26.251Z,25.23
2019-06-07T02:53:00.194Z,27.07
2019-06-07T02:56:25.947Z,24.27
2019-06-07T02:58:11.997Z,24.50
2019-06-07T03:01:06.522Z,22.15
2019-06-07T03:03:24.688Z,23.85
2019-06-07T03:05:59.529Z,24.85
2019-06-07T03:08:36.735Z,21.87
2019-06-07T03:11:11.870Z,28.32
2019-06-07T03:13:50.194Z,25.30
2019-06-07T03:16:31.317Z,27.67
2019-06-07T03:19:19.166Z,23.38
2019-06-07T03:21:55.706Z,23.10
2019-06-07T03:24:33.690Z,23.80
2019-06-07T03:29:43.590Z,29.00
2019-06-07T03:32:19.159Z,25.75
2019-06-07T03:34:53.297Z,28.17
2019-06-07T03:37:29.954Z,23.00
2019-06-07T03:40:04.366Z,24.45
2019-06-07T03:42:40.133Z,25.50
2019-06-07T03:45:14.681Z,22.95
2019-06-07T03:47:48.662Z,25.30
2019-06-07T03:50:22.795Z,28.17
2019-06-07T03:52:57.017Z,29.63
2019-06-07T03:55:34.874Z,28.75
2019-06-07T04:00:43.474Z,25.72
2019-06-07T04:03:32.910Z,26.42
2019-06-07T04:05:54.341Z,25.55
2019-06-07T04:08:30.869Z,26.30
2019-06-07T04:11:05.829Z,44.63
2019-06-07T04:13:42.943Z,42.53
2019-06-07T04:16:15.795Z,44.70
2019-06-07T04:18:49.986Z,48.08
2019-06-07T04:21:24.038Z,43.48
2019-06-07T04:23:58.232Z,51.18
2019-06-07T04:26:34.503Z,53.98
2019-06-07T04:29:32.184Z,56.45
2019-06-07T04:31:44.348Z,57.98
2019-06-07T04:34:18.543Z,61.55
2019-06-07T04:36:59.036Z,63.85
2019-06-07T04:39:34.037Z,79.95
2019-06-07T04:42:07.238Z,70.97
2019-06-07T04:44:42.827Z,67.67
2019-06-07T04:47:20.799Z,77.20
2019-06-07T04:49:55.152Z,84.28
2019-06-07T04:52:30.468Z,63.08
2019-06-07T04:55:05.282Z,59.80
2019-06-07T04:57:42.714Z,390.62
2019-06-07T05:00:46.579Z,250.65
2019-06-07T05:02:51.278Z,209.45
2019-06-07T05:05:25.272Z,176.32
2019-06-07T05:08:07.259Z,144.25
2019-06-07T05:10:38.796Z,137.43
2019-06-07T05:13:12.835Z,132.97
2019-06-07T05:15:46.797Z,123.18
2019-06-07T05:18:21.022Z,124.42
2019-06-07T05:20:55.216Z,99.92
2019-06-07T05:24:03.579Z,127.30
2019-06-07T05:26:06.423Z,111.55
2019-06-07T05:28:42.833Z,94.80
2019-06-07T05:31:16.622Z,108.57
2019-06-07T05:33:50.753Z,109.70
2019-06-07T05:36:24.877Z,94.13
2019-06-07T05:38:58.915Z,94.22
2019-06-07T05:41:34.157Z,96.45
2019-06-07T05:44:13.016Z,79.27
2019-06-07T05:46:47.156Z,88.95
2019-06-07T05:49:20.920Z,83.60
2019-06-07T05:51:54.813Z,79.65
2019-06-07T05:54:29.237Z,71.57
2019-06-07T05:57:03.502Z,70.72
2019-06-07T05:59:41.075Z,72.22
2019-06-07T06:02:22.264Z,72.90
2019-06-07T06:04:49.968Z,74.37
2019-06-07T06:07:24.034Z,77.90
2019-06-07T06:09:58.519Z,65.90
2019-06-07T06:12:38.212Z,77.10
2019-06-07T06:15:09.766Z,68.28
2019-06-07T06:17:47.958Z,78.22
2019-06-07T06:20:20.181Z,68.52
2019-06-07T06:22:54.233Z,67.05
2019-06-07T06:25:32.347Z,63.25
2019-06-07T06:28:11.573Z,69.90
2019-06-07T06:30:41.815Z,67.35
2019-06-07T06:33:33.182Z,62.25
2019-06-07T06:35:52.770Z,68.95
2019-06-07T06:38:26.917Z,59.70
2019-06-07T06:41:15.082Z,57.90
2019-06-07T06:47:36.007Z,50.55
2019-06-07T06:50:11.775Z,45.50
2019-06-07T06:52:48.495Z,53.52
2019-06-07T06:55:21.889Z,45.00
2019-06-07T06:57:56.652Z,41.48
2019-06-07T07:01:04.092Z,53.45
2019-06-07T07:06:24.611Z,46.58
2019-06-07T07:08:40.619Z,46.35
2019-06-07T07:11:14.676Z,48.33
2019-06-07T07:13:54.218Z,47.15
2019-06-07T07:16:28.154Z,39.60
2019-06-07T07:19:02.266Z,42.93
2019-06-07T07:21:36.539Z,39.18
2019-06-07T07:24:21.017Z,42.48
2019-06-07T07:26:48.712Z,45.50
2019-06-07T07:29:23.176Z,46.80
2019-06-07T07:31:57.530Z,39.55
2019-06-07T07:34:36.587Z,41.85
2019-06-07T07:37:07.837Z,49.48
2019-06-07T07:39:42.093Z,42.80
2019-06-07T07:42:21.483Z,46.05
2019-06-07T07:44:56.666Z,63.02
2019-06-07T07:47:30.938Z,71.05
2019-06-07T07:50:05.071Z,65.83
2019-06-07T07:52:39.416Z,66.55
2019-06-07T07:55:13.735Z,63.08
2019-06-07T07:57:49.460Z,58.40
2019-06-07T08:00:49.984Z,51.70
2019-06-07T08:03:04.348Z,50.85
2019-06-07T08:05:42.809Z,52.65
2019-06-07T08:08:13.444Z,42.85
2019-06-07T08:10:50.417Z,48.42
2019-06-07T08:13:26.988Z,47.38
2019-06-07T08:16:08.298Z,45.98
2019-06-07T08:18:36.714Z,48.17
2019-06-07T08:21:24.855Z,46.92
2019-06-07T08:23:48.225Z,44.63
2019-06-07T08:26:23.784Z,47.50
2019-06-07T08:29:02.321Z,49.85
2019-06-07T08:31:34.345Z,44.25
2019-06-07T08:34:08.830Z,43.87
2019-06-07T08:36:43.403Z,43.83
2019-06-07T08:39:17.560Z,45.15
2019-06-07T08:42:00.545Z,39.42
2019-06-07T08:44:27.594Z,32.95
2019-06-07T08:47:18.901Z,35.85
2019-06-07T08:49:38.883Z,35.10
2019-06-07T08:52:13.103Z,41.77
2019-06-07T08:54:47.925Z,35.68
2019-06-07T08:57:22.508Z,35.80
2019-06-07T09:00:05.943Z,31.45
2019-06-07T09:02:32.712Z,32.75
2019-06-07T09:05:13.353Z,37.23
2019-06-07T09:08:07.158Z,30.12
2019-06-07T09:10:25.967Z,33.30
2019-06-07T09:13:07.505Z,28.73
2019-06-07T09:15:37.125Z,28.27
2019-06-07T09:20:50.085Z,35.65
2019-06-07T09:23:24.254Z,29.70
2019-06-07T09:26:06.469Z,30.82
2019-06-07T09:28:35.721Z,28.85
2019-06-07T09:31:12.568Z,31.87
2019-06-07T09:33:47.054Z,33.70
2019-06-07T09:36:21.315Z,42.93
2019-06-07T09:38:58.693Z,34.60
2019-06-07T09:41:46.951Z,38.40
2019-06-07T09:44:21.468Z,31.95
2019-06-07T09:46:44.915Z,31.00
2019-06-07T09:49:31.531Z,30.80
2019-06-07T09:51:55.762Z,30.65
2019-06-07T09:55:03.713Z,30.48
2019-06-07T09:57:16.443Z,44.53
2019-06-07T09:59:42.769Z,32.25
2019-06-07T10:02:16.781Z,31.02
2019-06-07T10:04:51.188Z,36.38
2019-06-07T10:07:31.928Z,30.85
2019-06-07T10:10:22.871Z,24.63
2019-06-07T10:12:37.354Z,24.15
2019-06-07T10:15:12.023Z,27.02
2019-06-07T10:17:45.967Z,27.27
2019-06-07T10:20:20.607Z,31.90
2019-06-07T10:22:54.835Z,27.62
2019-06-07T10:25:29.158Z,24.30
2019-06-07T10:28:03.872Z,24.10
2019-06-07T10:30:38.451Z,23.35
2019-06-07T10:33:12.750Z,23.80
2019-06-07T10:35:47.914Z,21.12
2019-06-07T10:38:22.006Z,27.42
2019-06-07T10:40:56.383Z,21.48
2019-06-07T10:43:30.839Z,21.17
2019-06-07T10:46:05.716Z,24.15
2019-06-07T10:48:41.234Z,23.98
2019-06-07T10:51:15.714Z,22.75
2019-06-07T10:53:50.177Z,22.80
2019-06-07T10:56:25.280Z,20.97
2019-06-07T10:58:59.441Z,21.07
2019-06-07T11:01:33.708Z,23.87
2019-06-07T11:04:07.883Z,26.25
2019-06-07T11:06:42.843Z,26.30
2019-06-07T11:09:17.421Z,25.37
2019-06-07T11:11:51.617Z,23.77
2019-06-07T11:14:25.827Z,26.70
2019-06-07T11:17:00.132Z,30.12
2019-06-07T11:19:34.663Z,39.73
2019-06-07T11:22:10.108Z,37.48
2019-06-07T11:24:44.676Z,34.90
2019-06-07T11:27:19.331Z,31.73
2019-06-07T11:29:53.396Z,29.10
2019-06-07T11:32:27.747Z,29.65
2019-06-07T11:35:02.367Z,35.28
2019-06-07T11:37:36.750Z,28.35
2019-06-07T11:40:35.691Z,27.17
2019-06-07T11:42:48.990Z,25.52
2019-06-07T11:45:25.966Z,24.85
2019-06-07T11:48:01.042Z,29.20
2019-06-07T11:50:36.036Z,24.92
2019-06-07T11:53:12.578Z,25.62
2019-06-07T11:55:47.066Z,30.48
2019-06-07T11:58:21.908Z,30.20
2019-06-07T12:00:57.321Z,26.45
2019-06-07T12:03:31.541Z,23.67
2019-06-07T12:06:05.572Z,26.35
2019-06-07T12:08:39.707Z,30.08
2019-06-07T12:11:14.364Z,27.35
2019-06-07T12:13:48.685Z,25.52
2019-06-07T12:16:23.791Z,22.45
2019-06-07T12:18:57.976Z,27.67
2019-06-07T12:21:32.122Z,24.37
2019-06-07T12:24:06.530Z,24.98
2019-06-07T12:26:40.797Z,23.50
2019-06-07T12:29:14.991Z,25.02
2019-06-07T12:31:49.137Z,26.77
2019-06-07T12:34:23.272Z,24.57
2019-06-07T12:36:57.283Z,28.62
2019-06-07T12:39:31.688Z,26.45
2019-06-07T12:42:05.671Z,29.50
2019-06-07T12:44:39.838Z,40.60
2019-06-07T12:47:14.992Z,30.88
2019-06-07T12:49:52.395Z,28.27
2019-06-07T12:52:26.471Z,28.83
2019-06-07T12:55:00.727Z,27.42
2019-06-07T12:57:34.946Z,30.10
2019-06-07T13:00:11.181Z,32.00
2019-06-07T13:02:45.412Z,28.80
2019-06-07T13:05:20.002Z,29.98
2019-06-07T13:07:54.301Z,33.20
2019-06-07T13:10:28.634Z,27.25
2019-06-07T13:13:02.771Z,33.58
2019-06-07T13:15:36.697Z,29.35
2019-06-07T13:18:14.846Z,31.93
2019-06-07T13:20:46.949Z,30.97
2019-06-07T13:23:22.654Z,39.42
2019-06-07T13:25:56.855Z,36.90
2019-06-07T13:28:31.755Z,35.85
2019-06-07T13:31:06.118Z,32.15
2019-06-07T13:33:40.199Z,33.40
2019-06-07T13:36:14.386Z,41.42
2019-06-07T13:38:48.687Z,42.43
2019-06-07T13:41:36.330Z,37.23
2019-06-07T13:43:58.772Z,41.75
2019-06-07T13:46:34.105Z,31.90
2019-06-07T13:49:08.447Z,33.85
2019-06-07T13:51:42.537Z,34.70
2019-06-07T13:54:16.609Z,29.30
2019-06-07T13:57:02.254Z,39.18
2019-06-07T13:59:28.558Z,46.83
2019-06-07T14:02:02.844Z,45.17
2019-06-07T14:04:37.140Z,49.55
2019-06-07T14:07:11.470Z,48.15
2019-06-07T14:09:45.771Z,44.08
2019-06-07T14:12:22.093Z,44.83
2019-06-07T14:14:56.226Z,44.13
2019-06-07T14:17:31.001Z,47.78
2019-06-07T14:20:07.167Z,51.00
2019-06-07T14:22:41.327Z,55.00
2019-06-07T14:25:15.479Z,45.90
2019-06-07T14:27:49.721Z,43.73
2019-06-07T14:30:24.289Z,44.25
2019-06-07T14:32:58.547Z,41.18
2019-06-07T14:35:33.719Z,38.55
2019-06-07T14:38:08.091Z,36.80
2019-06-07T14:40:42.367Z,41.85
2019-06-07T14:43:16.664Z,48.17
2019-06-07T14:45:51.730Z,45.92
2019-06-07T14:48:25.944Z,39.67
2019-06-07T14:51:00.300Z,41.30
2019-06-07T14:53:35.087Z,40.40
2019-06-07T14:56:09.324Z,43.78
2019-06-07T14:58:43.742Z,41.95
2019-06-07T15:01:17.664Z,41.92
2019-06-07T15:03:51.775Z,38.20
2019-06-07T15:06:26.773Z,42.53
2019-06-07T15:09:01.049Z,45.92
2019-06-07T15:11:36.874Z,37.80
2019-06-07T15:14:11.241Z,57.83
2019-06-07T15:16:45.573Z,69.50
2019-06-07T15:19:19.760Z,57.27
2019-06-07T15:21:53.749Z,73.30
2019-06-07T15:24:28.145Z,79.53
2019-06-07T15:27:02.501Z,61.68
2019-06-07T15:29:37.902Z,58.68
2019-06-07T15:32:12.644Z,68.00
2019-06-07T15:34:46.919Z,66.10
2019-06-07T15:37:21.118Z,57.08
2019-06-07T15:39:55.082Z,60.83
2019-06-07T15:42:43.942Z,66.22
2019-06-07T15:45:05.840Z,53.13
2019-06-07T15:47:40.620Z,45.43
2019-06-07T15:50:16.799Z,48.35
2019-06-07T15:52:50.876Z,45.23
2019-06-07T15:55:25.827Z,42.53
2019-06-07T15:57:59.918Z,39.75
2019-06-07T16:00:35.449Z,40.60
2019-06-07T16:03:10.001Z,33.85
2019-06-07T16:05:44.473Z,35.48
2019-06-07T16:08:18.736Z,36.48
2019-06-07T16:10:53.178Z,38.83
2019-06-07T16:13:27.598Z,43.87
2019-06-07T16:16:01.857Z,35.95
2019-06-07T16:18:37.657Z,36.42
2019-06-07T16:21:12.119Z,31.70
2019-06-07T16:23:46.749Z,35.03
2019-06-07T16:26:21.323Z,32.35
2019-06-07T16:28:57.322Z,33.35
2019-06-07T16:31:31.647Z,32.53
2019-06-07T16:34:05.916Z,31.30
2019-06-07T16:36:40.355Z,30.92
2019-06-07T16:39:14.771Z,30.85
2019-06-07T16:41:49.427Z,28.35
2019-06-07T16:44:23.641Z,29.12
2019-06-07T16:46:57.832Z,35.75
2019-06-07T16:49:32.510Z,27.20
2019-06-07T16:52:06.964Z,28.35
2019-06-07T16:54:41.459Z,29.42
2019-06-07T16:57:15.691Z,38.45
2019-06-07T16:59:50.879Z,31.87
2019-06-07T17:02:25.499Z,35.13
2019-06-07T17:04:59.689Z,35.75
2019-06-07T17:07:34.203Z,47.03
2019-06-07T17:10:09.140Z,32.88
2019-06-07T17:12:44.827Z,31.48
2019-06-07T17:15:20.150Z,30.02
2019-06-07T17:17:54.253Z,29.32
2019-06-07T17:20:28.865Z,38.83
2019-06-07T17:23:02.905Z,36.85
2019-06-07T17:25:37.111Z,35.28
2019-06-07T17:28:12.264Z,27.87
2019-06-07T17:30:48.066Z,29.05
2019-06-07T17:33:22.467Z,30.25
2019-06-07T17:35:56.405Z,29.82
2019-06-07T17:38:31.458Z,24.82
2019-06-07T17:41:05.735Z,24.98
2019-06-07T17:43:50.458Z,27.00
2019-06-07T17:46:15.678Z,27.15
2019-06-07T17:48:49.815Z,26.52
2019-06-07T17:51:24.157Z,24.85
2019-06-07T17:53:58.321Z,31.12
2019-06-07T17:56:32.520Z,28.60
2019-06-07T17:59:06.643Z,26.25
2019-06-07T18:01:41.912Z,25.32
2019-06-07T18:04:17.305Z,23.40
2019-06-07T18:06:51.578Z,24.07
2019-06-07T18:09:27.396Z,25.82
2019-06-07T18:12:01.322Z,26.48
2019-06-07T18:14:35.715Z,24.32
2019-06-07T18:17:09.850Z,27.45
2019-06-07T18:19:45.273Z,23.92
2019-06-07T18:22:19.517Z,29.07
2019-06-07T18:24:54.703Z,23.90
2019-06-07T18:27:28.767Z,23.98
2019-06-07T18:30:11.442Z,23.40
2019-06-07T18:32:38.506Z,24.87
2019-06-07T18:35:12.592Z,28.32
2019-06-07T18:37:47.054Z,24.12
2019-06-07T18:40:21.127Z,26.02
2019-06-07T18:42:55.424Z,21.95
2019-06-07T18:45:29.581Z,27.62
2019-06-07T18:48:06.903Z,23.38
2019-06-07T18:50:41.193Z,23.07
2019-06-07T18:53:16.300Z,25.57
2019-06-07T18:55:52.160Z,26.60
2019-06-07T18:58:26.653Z,25.68
2019-06-07T19:01:00.801Z,25.48
2019-06-07T19:03:34.786Z,22.60
2019-06-07T19:06:09.495Z,23.55
2019-06-07T19:08:43.480Z,24.65
2019-06-07T19:11:17.574Z,30.45
2019-06-07T19:13:52.947Z,26.48
2019-06-07T19:16:28.141Z,25.60
2019-06-07T19:19:02.420Z,24.95
2019-06-07T19:21:36.552Z,26.12
2019-06-07T19:24:10.613Z,24.27
2019-06-07T19:26:44.599Z,24.45
2019-06-07T19:29:18.759Z,26.73
2019-06-07T19:31:52.996Z,24.50
2019-06-07T19:34:26.984Z,25.77
2019-06-07T19:37:02.123Z,26.25
2019-06-07T19:39:36.747Z,24.80
2019-06-07T19:42:10.888Z,26.30
2019-06-07T19:44:54.301Z,23.12
2019-06-07T19:47:21.080Z,23.52
2019-06-07T19:49:56.613Z,23.27
2019-06-07T19:52:31.703Z,23.92
2019-06-07T19:55:09.892Z,23.77
2019-06-07T19:57:42.766Z,24.45
2019-06-07T20:00:17.226Z,23.05
2019-06-07T20:02:51.415Z,24.65
2019-06-07T20:05:25.356Z,23.25
2019-06-07T20:08:00.600Z,21.50
2019-06-07T20:10:35.339Z,25.65
2019-06-07T20:13:09.568Z,24.65
2019-06-07T20:15:44.816Z,22.30
2019-06-07T20:18:18.672Z,21.95
2019-06-07T20:20:52.815Z,25.80
2019-06-07T20:23:29.796Z,24.07
2019-06-07T20:26:04.798Z,22.00
2019-06-07T20:28:39.852Z,24.50
2019-06-07T20:31:14.198Z,23.62
2019-06-07T20:33:48.506Z,22.22
2019-06-07T20:36:22.466Z,22.55
2019-06-07T20:38:57.947Z,32.70
2019-06-07T20:41:33.535Z,31.25
2019-06-07T20:44:08.067Z,26.68
2019-06-07T20:46:45.399Z,26.27
2019-06-07T20:49:19.791Z,23.75
2019-06-07T20:51:53.793Z,29.10
2019-06-07T20:54:27.865Z,27.70
2019-06-07T20:57:02.665Z,26.80
2019-06-07T20:59:36.873Z,22.00
2019-06-07T21:02:11.861Z,25.25
2019-06-07T21:04:48.206Z,26.70
2019-06-07T21:07:22.375Z,26.10
2019-06-07T21:09:56.677Z,26.45
2019-06-07T21:12:30.619Z,25.20
2019-06-07T21:15:09.713Z,26.25
2019-06-07T21:17:41.319Z,22.87
2019-06-07T21:20:15.807Z,23.25
2019-06-07T21:22:49.959Z,22.30
2019-06-07T21:25:24.207Z,24.70
2019-06-07T21:27:58.306Z,24.10
2019-06-07T21:30:32.576Z,23.77
2019-06-07T21:33:07.893Z,23.15
2019-06-07T21:35:42.134Z,23.73
2019-06-07T21:38:16.112Z,24.85
2019-06-07T21:40:50.300Z,23.10
2019-06-07T21:43:24.517Z,20.80
2019-06-07T21:46:05.532Z,24.05
2019-06-07T21:48:34.606Z,21.65
2019-06-07T21:51:08.692Z,20.50
2019-06-07T21:53:42.832Z,22.20
2019-06-07T21:56:17.035Z,23.30
2019-06-07T21:58:51.643Z,23.22
2019-06-07T22:01:30.818Z,22.50
2019-06-07T22:04:05.455Z,22.10
2019-06-07T22:06:39.748Z,21.97
2019-06-07T22:09:14.669Z,21.82
2019-06-07T22:11:48.631Z,23.12
2019-06-07T22:14:22.832Z,22.55
2019-06-07T22:16:56.979Z,23.32
2019-06-07T22:19:31.175Z,21.52
2019-06-07T22:22:07.150Z,24.25
2019-06-07T22:24:41.279Z,20.92
2019-06-07T22:27:15.681Z,21.77
2019-06-07T22:29:50.246Z,21.25
2019-06-07T22:32:24.548Z,22.30
2019-06-07T22:34:58.857Z,21.37
2019-06-07T22:37:32.985Z,23.85
2019-06-07T22:40:08.520Z,22.85
2019-06-07T22:42:42.740Z,20.80
2019-06-07T22:45:17.156Z,22.22
2019-06-07T22:47:51.422Z,23.02
2019-06-07T22:50:26.527Z,20.17
2019-06-07T22:53:00.478Z,23.32
2019-06-07T22:55:34.573Z,22.65
2019-06-07T22:58:09.989Z,22.37
2019-06-07T23:00:44.175Z,23.27
2019-06-07T23:03:19.096Z,22.52
2019-06-07T23:05:53.324Z,22.25
2019-06-07T23:08:27.229Z,22.37
2019-06-07T23:11:01.272Z,23.30
2019-06-07T23:13:35.492Z,28.27
2019-06-07T23:16:11.381Z,31.30
2019-06-07T23:18:45.519Z,27.98
2019-06-07T23:21:20.123Z,29.07
2019-06-07T23:23:54.613Z,25.82
2019-06-07T23:26:28.517Z,24.57
2019-06-07T23:29:02.790Z,26.82
2019-06-07T23:31:36.890Z,21.80
2019-06-07T23:34:11.086Z,23.05
2019-06-07T23:36:45.312Z,27.60
2019-06-07T23:39:22.032Z,25.92
2019-06-07T23:41:55.033Z,24.43
2019-06-07T23:44:29.196Z,23.98
2019-06-07T23:47:11.189Z,24.32
2019-06-07T23:49:39.529Z,25.08
2019-06-07T23:52:13.901Z,23.05
2019-06-07T23:54:48.063Z,24.40
2019-06-07T23:57:22.704Z,23.77
2019-06-07T23:59:56.873Z,25.88
